createdAt,value
2022-11-07T00:03:24.199Z,77.14
2022-11-07T00:12:49.990Z,77.19
2022-11-07T00:18:10.889Z,77.35
2022-11-07T00:23:39.368Z,77.48
2022-11-07T00:30:26.624Z,77.54
2022-11-07T00:33:45.150Z,77.62
2022-11-07T00:36:58.955Z,77.68
2022-11-07T00:44:58.849Z,77.69
2022-11-07T00:51:44.274Z,77.98
2022-11-07T01:14:09.256Z,77.90
2022-11-07T01:17:43.468Z,77.99
2022-11-07T01:21:46.885Z,77.95
2022-11-07T01:25:31.346Z,77.95
2022-11-07T01:28:25.621Z,78.01
2022-11-07T01:31:32.174Z,78.00
2022-11-07T01:34:53.861Z,77.98
2022-11-07T01:37:53.232Z,77.91
2022-11-07T01:41:27.478Z,78.06
2022-11-07T01:48:39.312Z,78.13
2022-11-07T01:56:34.010Z,78.34
2022-11-07T02:06:22.553Z,78.78
2022-11-07T02:19:59.888Z,78.90
2022-11-07T02:23:28.486Z,78.96
2022-11-07T02:35:51.475Z,79.20
2022-11-07T02:43:07.564Z,79.30
2022-11-07T02:53:27.148Z,79.39
2022-11-07T02:56:38.341Z,79.44
2022-11-07T02:59:44.592Z,79.46
2022-11-07T03:02:40.332Z,79.46
2022-11-07T03:09:25.824Z,79.56
2022-11-07T03:12:26.938Z,79.55
2022-11-07T03:16:09.595Z,79.74
2022-11-07T03:22:01.935Z,79.67
2022-11-07T03:24:41.417Z,79.74
2022-11-07T03:31:14.140Z,79.88
2022-11-07T03:49:05.585Z,80.10
2022-11-07T03:52:27.370Z,79.98
2022-11-07T03:55:18.281Z,79.92
2022-11-07T04:09:55.413Z,79.74
2022-11-07T04:15:08.907Z,79.85
2022-11-07T04:19:04.679Z,79.85
2022-11-07T04:22:34.583Z,79.81
2022-11-07T04:26:03.353Z,79.86
2022-11-07T04:29:52.230Z,79.75
2022-11-07T04:33:07.936Z,79.69
2022-11-07T04:36:11.700Z,79.57
2022-11-07T04:39:28.938Z,79.49
2022-11-07T04:42:41.778Z,79.34
2022-11-07T04:49:02.706Z,79.46
2022-11-07T04:52:14.643Z,79.54
2022-11-07T04:55:25.297Z,79.44
2022-11-07T04:59:38.164Z,79.28
2022-11-07T05:02:43.138Z,79.28
2022-11-07T05:06:24.661Z,79.21
2022-11-07T05:09:39.970Z,79.22
2022-11-07T05:14:05.339Z,79.18
2022-11-07T05:16:23.150Z,79.20
2022-11-07T05:20:20.906Z,79.30
2022-11-07T05:23:42.153Z,79.40
2022-11-07T05:26:48.872Z,79.49
2022-11-07T05:30:22.707Z,79.49
2022-11-07T05:33:41.707Z,79.33
2022-11-07T05:37:04.487Z,79.28
2022-11-07T06:02:05.158Z,79.65
2022-11-07T06:05:03.522Z,79.56
2022-11-07T06:08:14.327Z,79.62
2022-11-07T06:11:22.313Z,79.62
2022-11-07T06:14:21.270Z,79.60
2022-11-07T06:17:04.727Z,79.51
2022-11-07T06:20:27.459Z,79.59
2022-11-07T06:23:45.602Z,79.57
2022-11-07T06:28:18.658Z,79.54
2022-11-07T06:31:03.453Z,79.63
2022-11-07T06:34:29.687Z,79.58
2022-11-07T06:37:45.582Z,79.62
2022-11-07T07:00:53.675Z,79.61
2022-11-07T07:03:42.543Z,79.58
2022-11-07T07:08:29.543Z,79.50
2022-11-07T07:10:20.692Z,79.43
2022-11-07T07:14:39.218Z,79.31
2022-11-07T07:16:45.135Z,79.30
2022-11-07T07:20:11.383Z,79.20
2022-11-07T07:26:50.491Z,79.00
2022-11-07T07:30:34.276Z,78.90
2022-11-07T07:33:56.360Z,78.95
2022-11-07T07:37:32.761Z,78.94
2022-11-07T07:44:54.990Z,79.28
2022-11-07T07:48:48.923Z,79.57
2022-11-07T08:12:21.562Z,78.79
2022-11-07T08:38:26.630Z,77.38
2022-11-07T08:41:22.117Z,77.57
2022-11-07T08:44:26.128Z,77.49
2022-11-07T08:47:34.881Z,77.29
2022-11-07T08:50:41.958Z,76.98
2022-11-07T08:53:44.984Z,76.77
2022-11-07T09:04:35.451Z,76.78
2022-11-07T09:08:18.764Z,76.36
2022-11-07T09:12:01.044Z,76.42
2022-11-07T09:15:39.170Z,76.05
2022-11-07T09:19:14.237Z,75.34
2022-11-07T09:22:40.374Z,74.69
2022-11-07T09:29:51.766Z,72.66
2022-11-07T09:33:39.309Z,71.81
2022-11-07T09:37:46.802Z,71.53
2022-11-07T09:45:34.062Z,70.44
2022-11-07T09:49:10.117Z,69.94
2022-11-07T09:56:11.063Z,69.10
2022-11-07T10:00:27.679Z,68.48
2022-11-07T10:20:43.297Z,67.18
2022-11-07T10:24:11.993Z,67.23
2022-11-07T10:27:58.537Z,67.19
2022-11-07T10:44:39.754Z,66.38
2022-11-07T10:49:25.296Z,66.42
2022-11-07T10:51:42.022Z,66.63
2022-11-07T11:02:03.287Z,64.66
2022-11-07T11:06:04.872Z,63.98
2022-11-07T11:08:56.387Z,63.54
2022-11-07T11:12:21.769Z,63.32
2022-11-07T11:23:40.525Z,63.96
2022-11-07T11:26:24.173Z,63.95
2022-11-07T11:33:28.238Z,64.00
2022-11-07T12:08:41.705Z,65.23
2022-11-07T12:11:27.285Z,65.21
2022-11-07T12:14:30.272Z,65.33
2022-11-07T12:17:06.331Z,65.34
2022-11-07T12:20:02.840Z,65.50
2022-11-07T12:22:56.287Z,65.29
2022-11-07T12:25:59.125Z,65.23
2022-11-07T12:28:45.820Z,65.26
2022-11-07T12:32:01.970Z,65.16
2022-11-07T12:35:14.274Z,65.19
2022-11-07T12:38:16.929Z,65.03
2022-11-07T12:41:25.222Z,65.07
2022-11-07T12:44:00.471Z,65.14
2022-11-07T12:46:59.095Z,65.09
2022-11-07T12:49:57.681Z,65.02
2022-11-07T12:52:47.891Z,65.14
2022-11-07T12:55:42.176Z,64.92
2022-11-07T12:58:28.149Z,64.79
2022-11-07T13:00:58.713Z,64.95
2022-11-07T13:03:54.005Z,65.00
2022-11-07T13:06:39.638Z,64.94
2022-11-07T13:09:37.681Z,64.74
2022-11-07T13:12:27.107Z,64.78
2022-11-07T13:14:57.265Z,64.68
2022-11-07T13:17:37.779Z,64.55
2022-11-07T13:20:30.036Z,64.53
2022-11-07T13:23:01.455Z,64.46
2022-11-07T13:25:33.049Z,64.63
2022-11-07T13:28:25.554Z,64.53
2022-11-07T13:31:02.302Z,64.70
2022-11-07T13:33:37.400Z,64.73
2022-11-07T13:36:27.369Z,64.74
2022-11-07T13:39:00.426Z,64.69
2022-11-07T13:41:29.454Z,64.68
2022-11-07T13:44:04.121Z,64.66
2022-11-07T13:46:48.039Z,64.60
2022-11-07T13:49:44.948Z,64.64
2022-11-07T13:52:37.530Z,64.65
2022-11-07T13:55:20.705Z,64.66
2022-11-07T13:58:03.555Z,64.65
2022-11-07T14:00:34.740Z,64.71
2022-11-07T14:03:04.026Z,64.75
2022-11-07T14:05:36.759Z,64.78
2022-11-07T14:08:28.062Z,64.80
2022-11-07T14:10:57.523Z,64.95
2022-11-07T14:13:41.230Z,64.98
2022-11-07T14:16:26.639Z,64.95
2022-11-07T14:19:04.034Z,65.09
2022-11-07T14:21:36.955Z,65.15
2022-11-07T14:24:27.041Z,65.03
2022-11-07T14:27:00.495Z,65.08
2022-11-07T14:29:29.847Z,65.12
2022-11-07T14:32:05.912Z,65.13
2022-11-07T14:34:36.500Z,65.23
2022-11-07T14:37:07.015Z,65.21
2022-11-07T14:39:36.628Z,65.08
2022-11-07T14:42:05.780Z,65.17
2022-11-07T14:44:56.077Z,65.26
2022-11-07T14:47:32.507Z,65.36
2022-11-07T14:50:03.146Z,65.58
2022-11-07T14:52:42.433Z,65.70
2022-11-07T14:55:28.236Z,65.66
2022-11-07T14:58:05.327Z,65.72
2022-11-07T15:00:35.219Z,65.84
2022-11-07T15:03:04.644Z,65.96
2022-11-07T15:05:39.347Z,65.96
2022-11-07T15:08:30.501Z,65.93
2022-11-07T15:11:15.168Z,66.09
2022-11-07T15:13:47.982Z,66.15
2022-11-07T15:16:23.034Z,66.29
2022-11-07T15:19:01.667Z,66.21
2022-11-07T15:21:38.274Z,66.24
2022-11-07T15:24:35.427Z,66.31
2022-11-07T15:27:21.645Z,66.49
2022-11-07T15:30:00.952Z,66.58
2022-11-07T15:32:37.716Z,66.74
2022-11-07T15:35:42.915Z,66.87
2022-11-07T15:38:27.860Z,67.07
2022-11-07T15:40:56.918Z,67.16
2022-11-07T15:43:25.795Z,67.25
2022-11-07T15:45:56.285Z,67.32
2022-11-07T15:48:36.917Z,67.49
2022-11-07T15:51:09.753Z,67.52
2022-11-07T15:53:38.647Z,67.61
2022-11-07T15:56:10.534Z,67.74
2022-11-07T15:58:39.356Z,67.99
2022-11-07T16:01:08.976Z,68.30
2022-11-07T16:03:38.023Z,68.57
2022-11-07T16:06:27.219Z,68.63
2022-11-07T16:08:56.644Z,68.70
2022-11-07T16:11:25.651Z,68.80
2022-11-07T16:14:14.814Z,69.01
2022-11-07T16:16:47.655Z,69.17
2022-11-07T16:19:24.726Z,69.33
2022-11-07T16:21:53.683Z,69.33
2022-11-07T16:24:22.977Z,69.42
2022-11-07T16:26:52.552Z,69.34
2022-11-07T16:29:27.176Z,69.24
2022-11-07T16:31:56.299Z,69.33
2022-11-07T16:34:25.511Z,69.49
2022-11-07T16:36:55.014Z,69.52
2022-11-07T16:39:24.121Z,69.53
2022-11-07T16:41:52.986Z,69.52
2022-11-07T16:44:26.353Z,69.62
2022-11-07T16:46:56.792Z,69.93
2022-11-07T16:49:33.855Z,69.96
2022-11-07T16:52:03.764Z,70.00
2022-11-07T16:54:32.673Z,69.99
2022-11-07T16:57:01.849Z,70.18
2022-11-07T16:59:30.802Z,70.11
2022-11-07T17:01:59.952Z,70.08
2022-11-07T17:04:28.928Z,70.04
2022-11-07T17:06:57.830Z,70.17
2022-11-07T17:09:28.063Z,70.03
2022-11-07T17:11:56.886Z,70.05
2022-11-07T17:14:25.837Z,70.20
2022-11-07T17:16:55.113Z,70.25
2022-11-07T17:19:27.641Z,70.36
2022-11-07T17:21:56.628Z,70.38
2022-11-07T17:24:25.532Z,70.40
2022-11-07T17:26:54.625Z,70.44
2022-11-07T17:29:24.078Z,70.56
2022-11-07T17:31:56.756Z,70.57
2022-11-07T17:34:28.260Z,70.63
2022-11-07T17:37:02.232Z,70.62
2022-11-07T17:39:35.088Z,70.61
2022-11-07T17:42:04.956Z,70.52
2022-11-07T17:44:37.087Z,70.49
2022-11-07T17:47:06.423Z,70.58
2022-11-07T17:49:38.267Z,70.70
2022-11-07T17:52:07.161Z,70.70
2022-11-07T17:54:36.072Z,70.51
2022-11-07T17:57:08.993Z,70.70
2022-11-07T17:59:40.960Z,70.76
2022-11-07T18:02:20.314Z,70.95
2022-11-07T18:04:49.555Z,70.97
2022-11-07T18:07:19.077Z,70.75
2022-11-07T18:09:49.566Z,70.62
2022-11-07T18:12:18.800Z,70.61
2022-11-07T18:14:48.185Z,70.52
2022-11-07T18:17:17.461Z,70.39
2022-11-07T18:19:48.327Z,70.29
2022-11-07T18:22:17.440Z,70.37
2022-11-07T18:24:47.280Z,70.26
2022-11-07T18:27:16.170Z,70.05
2022-11-07T18:29:45.089Z,69.91
2022-11-07T18:32:13.999Z,69.97
2022-11-07T18:34:42.931Z,69.92
2022-11-07T18:37:11.869Z,69.77
2022-11-07T18:39:40.766Z,69.70
2022-11-07T18:42:09.616Z,69.75
2022-11-07T18:44:54.115Z,69.61
2022-11-07T18:47:24.916Z,69.74
2022-11-07T18:49:57.662Z,69.86
2022-11-07T18:52:28.209Z,69.78
2022-11-07T18:54:57.982Z,69.76
2022-11-07T18:57:27.156Z,69.80
2022-11-07T18:59:56.053Z,69.67
2022-11-07T19:02:25.159Z,69.61
2022-11-07T19:04:54.149Z,69.65
2022-11-07T19:07:23.545Z,69.57
2022-11-07T19:09:52.396Z,69.51
2022-11-07T19:12:21.321Z,69.43
2022-11-07T19:14:50.106Z,69.46
2022-11-07T19:17:18.888Z,69.46
2022-11-07T19:19:47.680Z,69.55
2022-11-07T19:22:17.236Z,69.42
2022-11-07T19:24:46.757Z,69.35
2022-11-07T19:27:15.562Z,69.17
2022-11-07T19:29:44.660Z,69.24
2022-11-07T19:32:14.233Z,69.27
2022-11-07T19:34:43.168Z,69.28
2022-11-07T19:37:12.174Z,69.24
2022-11-07T19:39:41.161Z,69.29
2022-11-07T19:42:10.556Z,69.28
2022-11-07T19:44:44.864Z,69.38
2022-11-07T19:47:17.762Z,69.43
2022-11-07T19:49:46.855Z,69.46
2022-11-07T19:52:15.744Z,69.57
2022-11-07T19:59:55.189Z,69.94
2022-11-07T20:02:34.439Z,70.03
2022-11-07T20:05:07.006Z,70.10
2022-11-07T20:07:37.102Z,69.99
2022-11-07T20:10:08.756Z,70.04
2022-11-07T20:12:37.855Z,70.07
2022-11-07T20:15:07.927Z,70.00
2022-11-07T20:17:36.874Z,70.02
2022-11-07T20:20:13.180Z,70.04
2022-11-07T20:22:47.591Z,69.91
2022-11-07T20:25:17.097Z,69.90
2022-11-07T20:27:46.119Z,69.84
2022-11-07T20:30:15.555Z,69.75
2022-11-07T20:32:47.644Z,69.68
2022-11-07T20:35:16.851Z,69.58
2022-11-07T20:37:45.899Z,69.53
2022-11-07T20:40:15.089Z,69.65
2022-11-07T20:42:44.052Z,69.41
2022-11-07T20:45:13.460Z,69.49
2022-11-07T20:47:42.333Z,69.45
2022-11-07T20:50:58.751Z,69.42
2022-11-07T20:53:55.045Z,69.90
2022-11-07T20:56:25.778Z,70.13
2022-11-07T20:58:55.350Z,70.10
2022-11-07T21:01:35.829Z,70.15
2022-11-07T21:04:14.166Z,70.25
2022-11-07T21:09:35.392Z,70.18
2022-11-07T21:12:04.376Z,70.45
2022-11-07T21:14:33.298Z,70.50
2022-11-07T21:17:03.360Z,70.58
2022-11-07T21:19:32.444Z,70.74
2022-11-07T21:22:01.339Z,70.72
2022-11-07T21:24:31.781Z,70.74
2022-11-07T21:27:00.756Z,70.73
2022-11-07T21:29:30.061Z,70.89
2022-11-07T21:31:58.980Z,71.00
2022-11-07T21:34:28.250Z,71.11
2022-11-07T21:37:01.847Z,71.08
2022-11-07T21:39:30.996Z,71.10
2022-11-07T21:41:59.966Z,71.16
2022-11-07T21:44:28.840Z,70.97
2022-11-07T21:46:57.743Z,71.04
2022-11-07T21:49:27.263Z,71.06
2022-11-07T21:51:57.142Z,71.09
2022-11-07T21:54:25.986Z,71.15
2022-11-07T21:56:55.395Z,71.18
2022-11-07T21:59:24.965Z,71.20
2022-11-07T22:01:55.270Z,71.17
2022-11-07T22:04:24.319Z,71.13
2022-11-07T22:06:53.278Z,71.11
2022-11-07T22:09:22.743Z,71.11
2022-11-07T22:11:51.797Z,71.05
2022-11-07T22:14:22.951Z,71.09
2022-11-07T22:16:54.948Z,70.99
2022-11-07T22:19:25.374Z,70.98
2022-11-07T22:21:54.230Z,71.20
2022-11-07T22:24:26.114Z,71.36
2022-11-07T22:26:55.840Z,71.41
2022-11-07T22:29:24.827Z,71.75
2022-11-07T22:31:53.779Z,71.72
2022-11-07T22:34:22.899Z,71.64
2022-11-07T22:36:51.795Z,71.62
2022-11-07T22:39:21.185Z,71.45
2022-11-07T22:41:50.059Z,71.44
2022-11-07T22:44:18.919Z,71.43
2022-11-07T22:46:47.864Z,71.40
2022-11-07T22:49:16.737Z,71.29
2022-11-07T22:51:45.646Z,71.20
2022-11-07T22:54:14.596Z,71.16
2022-11-07T22:56:43.477Z,71.08
2022-11-07T22:59:12.932Z,70.94
2022-11-07T23:01:43.778Z,70.87
2022-11-07T23:04:15.566Z,70.93
2022-11-07T23:06:45.456Z,71.02
2022-11-07T23:09:16.814Z,70.93
2022-11-07T23:11:47.696Z,70.84
2022-11-07T23:14:21.518Z,70.91
2022-11-07T23:16:53.003Z,70.97
2022-11-07T23:19:25.251Z,70.92
2022-11-07T23:21:56.553Z,70.77
2022-11-07T23:24:25.790Z,70.78
2022-11-07T23:26:54.637Z,70.80
2022-11-07T23:29:25.460Z,70.80
2022-11-07T23:31:54.544Z,70.83
2022-11-07T23:34:23.537Z,70.84
2022-11-07T23:36:52.702Z,70.70
2022-11-07T23:39:23.307Z,70.63
2022-11-07T23:41:52.262Z,70.62
2022-11-07T23:44:21.681Z,70.68
2022-11-07T23:47:09.049Z,70.60
2022-11-07T23:49:56.395Z,70.57
2022-11-07T23:52:25.328Z,70.59
2022-11-07T23:55:12.659Z,70.60
2022-11-07T23:58:00.009Z,70.67
